sensor_id;sensor_type;location;lat;lon;timestamp;temperature;humidity
69543;SHT31;56762;49.494;11.768;2023-04-25T00:01:08;7.89;79.50
69543;SHT31;56762;49.494;11.768;2023-04-25T00:03:39;7.87;80.23
69543;SHT31;56762;49.494;11.768;2023-04-25T00:06:07;7.90;80.18
69543;SHT31;56762;49.494;11.768;2023-04-25T00:08:35;7.86;80.08
69543;SHT31;56762;49.494;11.768;2023-04-25T00:11:04;7.91;80.23
69543;SHT31;56762;49.494;11.768;2023-04-25T00:13:33;7.91;80.11
69543;SHT31;56762;49.494;11.768;2023-04-25T00:16:01;7.93;80.09
69543;SHT31;56762;49.494;11.768;2023-04-25T00:18:29;7.91;80.37
69543;SHT31;56762;49.494;11.768;2023-04-25T00:20:59;7.93;79.96
69543;SHT31;56762;49.494;11.768;2023-04-25T00:23:27;7.94;80.31
69543;SHT31;56762;49.494;11.768;2023-04-25T00:25:54;7.93;80.27
69543;SHT31;56762;49.494;11.768;2023-04-25T00:28:22;7.94;80.74
69543;SHT31;56762;49.494;11.768;2023-04-25T00:30:51;7.96;80.52
69543;SHT31;56762;49.494;11.768;2023-04-25T00:33:19;7.93;80.87
69543;SHT31;56762;49.494;11.768;2023-04-25T00:35:47;7.94;80.90
69543;SHT31;56762;49.494;11.768;2023-04-25T00:38:15;7.96;80.59
69543;SHT31;56762;49.494;11.768;2023-04-25T00:40:43;7.94;81.14
69543;SHT31;56762;49.494;11.768;2023-04-25T00:43:10;7.97;80.95
69543;SHT31;56762;49.494;11.768;2023-04-25T00:45:39;7.96;80.77
69543;SHT31;56762;49.494;11.768;2023-04-25T00:48:08;7.96;81.06
69543;SHT31;56762;49.494;11.768;2023-04-25T00:50:36;7.91;81.43
69543;SHT31;56762;49.494;11.768;2023-04-25T00:53:04;7.91;81.51
69543;SHT31;56762;49.494;11.768;2023-04-25T00:55:32;7.89;80.76
69543;SHT31;56762;49.494;11.768;2023-04-25T00:58:01;7.91;81.01
69543;SHT31;56762;49.494;11.768;2023-04-25T01:00:29;7.91;81.08
69543;SHT31;56762;49.494;11.768;2023-04-25T01:02:56;7.94;80.84
69543;SHT31;56762;49.494;11.768;2023-04-25T01:05:26;7.97;80.71
69543;SHT31;56762;49.494;11.768;2023-04-25T01:07:53;7.97;80.74
69543;SHT31;56762;49.494;11.768;2023-04-25T01:10:22;8.03;80.32
69543;SHT31;56762;49.494;11.768;2023-04-25T01:12:49;8.04;80.45
69543;SHT31;56762;49.494;11.768;2023-04-25T01:15:17;8.03;80.66
69543;SHT31;56762;49.494;11.768;2023-04-25T01:17:45;8.01;80.61
69543;SHT31;56762;49.494;11.768;2023-04-25T01:20:13;8.03;80.44
69543;SHT31;56762;49.494;11.768;2023-04-25T01:22:43;8.06;80.58
69543;SHT31;56762;49.494;11.768;2023-04-25T01:25:11;8.08;80.59
69543;SHT31;56762;49.494;11.768;2023-04-25T01:27:40;8.11;80.80
69543;SHT31;56762;49.494;11.768;2023-04-25T01:30:08;8.08;80.32
69543;SHT31;56762;49.494;11.768;2023-04-25T01:32:36;8.16;80.75
69543;SHT31;56762;49.494;11.768;2023-04-25T01:35:06;8.16;80.72
69543;SHT31;56762;49.494;11.768;2023-04-25T01:37:36;8.17;80.89
69543;SHT31;56762;49.494;11.768;2023-04-25T01:40:06;8.21;81.32
69543;SHT31;56762;49.494;11.768;2023-04-25T01:42:36;8.23;81.07
69543;SHT31;56762;49.494;11.768;2023-04-25T01:45:05;8.23;80.89
69543;SHT31;56762;49.494;11.768;2023-04-25T01:47:33;8.24;81.31
69543;SHT31;56762;49.494;11.768;2023-04-25T01:50:02;8.21;82.03
69543;SHT31;56762;49.494;11.768;2023-04-25T01:52:30;8.21;81.20
69543;SHT31;56762;49.494;11.768;2023-04-25T01:54:59;8.24;80.71
69543;SHT31;56762;49.494;11.768;2023-04-25T01:57:29;8.27;81.28
69543;SHT31;56762;49.494;11.768;2023-04-25T01:59:59;8.25;81.80
69543;SHT31;56762;49.494;11.768;2023-04-25T02:02:27;8.21;82.43
69543;SHT31;56762;49.494;11.768;2023-04-25T02:04:54;8.23;82.54
69543;SHT31;56762;49.494;11.768;2023-04-25T02:07:23;8.24;83.06
69543;SHT31;56762;49.494;11.768;2023-04-25T02:09:50;8.21;83.01
69543;SHT31;56762;49.494;11.768;2023-04-25T02:12:18;8.23;82.48
69543;SHT31;56762;49.494;11.768;2023-04-25T02:14:47;8.21;82.86
69543;SHT31;56762;49.494;11.768;2023-04-25T02:17:15;8.17;83.40
69543;SHT31;56762;49.494;11.768;2023-04-25T02:19:43;8.14;83.66
69543;SHT31;56762;49.494;11.768;2023-04-25T02:22:11;8.16;83.80
69543;SHT31;56762;49.494;11.768;2023-04-25T02:24:38;8.16;84.06
69543;SHT31;56762;49.494;11.768;2023-04-25T02:27:07;8.11;84.05
69543;SHT31;56762;49.494;11.768;2023-04-25T02:29:35;8.11;84.55
69543;SHT31;56762;49.494;11.768;2023-04-25T02:32:04;8.07;84.50
69543;SHT31;56762;49.494;11.768;2023-04-25T02:34:32;8.06;84.57
69543;SHT31;56762;49.494;11.768;2023-04-25T02:37:00;8.03;84.79
69543;SHT31;56762;49.494;11.768;2023-04-25T02:39:27;7.97;84.63
69543;SHT31;56762;49.494;11.768;2023-04-25T02:41:55;8.00;84.99
69543;SHT31;56762;49.494;11.768;2023-04-25T02:44:23;7.96;84.66
69543;SHT31;56762;49.494;11.768;2023-04-25T02:46:51;7.90;85.10
69543;SHT31;56762;49.494;11.768;2023-04-25T02:49:20;7.93;85.09
69543;SHT31;56762;49.494;11.768;2023-04-25T02:51:48;7.91;85.44
69543;SHT31;56762;49.494;11.768;2023-04-25T02:54:15;7.89;85.15
69543;SHT31;56762;49.494;11.768;2023-04-25T02:56:43;7.89;85.30
69543;SHT31;56762;49.494;11.768;2023-04-25T02:59:10;7.89;85.28
69543;SHT31;56762;49.494;11.768;2023-04-25T03:01:38;7.89;85.09
69543;SHT31;56762;49.494;11.768;2023-04-25T03:04:06;7.89;84.93
69543;SHT31;56762;49.494;11.768;2023-04-25T03:06:35;7.86;85.24
69543;SHT31;56762;49.494;11.768;2023-04-25T03:09:03;7.83;85.24
69543;SHT31;56762;49.494;11.768;2023-04-25T03:11:31;7.83;85.14
69543;SHT31;56762;49.494;11.768;2023-04-25T03:13:58;7.80;85.42
69543;SHT31;56762;49.494;11.768;2023-04-25T03:16:27;7.72;85.29
69543;SHT31;56762;49.494;11.768;2023-04-25T03:18:54;7.69;85.18
69543;SHT31;56762;49.494;11.768;2023-04-25T03:21:22;7.66;85.38
69543;SHT31;56762;49.494;11.768;2023-04-25T03:23:51;7.63;85.72
69543;SHT31;56762;49.494;11.768;2023-04-25T03:26:19;7.59;85.40
69543;SHT31;56762;49.494;11.768;2023-04-25T03:28:47;7.51;85.58
69543;SHT31;56762;49.494;11.768;2023-04-25T03:31:14;7.44;85.98
69543;SHT31;56762;49.494;11.768;2023-04-25T03:33:42;7.38;86.17
69543;SHT31;56762;49.494;11.768;2023-04-25T03:36:09;7.32;86.43
69543;SHT31;56762;49.494;11.768;2023-04-25T03:38:37;7.32;86.54
69543;SHT31;56762;49.494;11.768;2023-04-25T03:41:07;7.25;86.90
69543;SHT31;56762;49.494;11.768;2023-04-25T03:43:35;7.26;87.08
69543;SHT31;56762;49.494;11.768;2023-04-25T03:46:02;7.22;87.32
69543;SHT31;56762;49.494;11.768;2023-04-25T03:48:30;7.19;87.26
69543;SHT31;56762;49.494;11.768;2023-04-25T03:50:58;7.16;87.23
69543;SHT31;56762;49.494;11.768;2023-04-25T03:53:25;7.12;87.20
69543;SHT31;56762;49.494;11.768;2023-04-25T03:55:53;7.14;87.47
69543;SHT31;56762;49.494;11.768;2023-04-25T03:58:22;7.11;87.41
69543;SHT31;56762;49.494;11.768;2023-04-25T04:00:50;7.18;87.39
69543;SHT31;56762;49.494;11.768;2023-04-25T04:03:18;7.22;87.45
69543;SHT31;56762;49.494;11.768;2023-04-25T04:05:47;7.22;86.92
69543;SHT31;56762;49.494;11.768;2023-04-25T04:08:15;7.25;87.24
69543;SHT31;56762;49.494;11.768;2023-04-25T04:10:43;7.26;87.33
69543;SHT31;56762;49.494;11.768;2023-04-25T04:13:10;7.28;87.30
69543;SHT31;56762;49.494;11.768;2023-04-25T04:15:39;7.25;87.15
69543;SHT31;56762;49.494;11.768;2023-04-25T04:18:08;7.26;87.20
69543;SHT31;56762;49.494;11.768;2023-04-25T04:20:36;7.25;87.21
69543;SHT31;56762;49.494;11.768;2023-04-25T04:23:03;7.28;87.40
69543;SHT31;56762;49.494;11.768;2023-04-25T04:25:31;7.31;87.06
69543;SHT31;56762;49.494;11.768;2023-04-25T04:27:59;7.41;87.01
69543;SHT31;56762;49.494;11.768;2023-04-25T04:30:27;7.48;86.77
69543;SHT31;56762;49.494;11.768;2023-04-25T04:32:57;7.55;86.54
69543;SHT31;56762;49.494;11.768;2023-04-25T04:35:25;7.62;86.67
69543;SHT31;56762;49.494;11.768;2023-04-25T04:37:53;7.67;86.03
69543;SHT31;56762;49.494;11.768;2023-04-25T04:40:21;7.73;85.57
69543;SHT31;56762;49.494;11.768;2023-04-25T04:42:49;7.82;85.43
69543;SHT31;56762;49.494;11.768;2023-04-25T04:45:17;7.89;85.21
69543;SHT31;56762;49.494;11.768;2023-04-25T04:47:45;7.94;85.33
69543;SHT31;56762;49.494;11.768;2023-04-25T04:50:14;8.01;85.12
69543;SHT31;56762;49.494;11.768;2023-04-25T04:52:42;8.08;84.20
69543;SHT31;56762;49.494;11.768;2023-04-25T04:55:10;8.08;84.51
69543;SHT31;56762;49.494;11.768;2023-04-25T04:57:37;8.14;84.81
69543;SHT31;56762;49.494;11.768;2023-04-25T05:00:07;8.18;84.32
69543;SHT31;56762;49.494;11.768;2023-04-25T05:02:37;8.20;83.76
69543;SHT31;56762;49.494;11.768;2023-04-25T05:05:07;8.24;83.45
69543;SHT31;56762;49.494;11.768;2023-04-25T05:07:36;8.20;83.62
69543;SHT31;56762;49.494;11.768;2023-04-25T05:10:05;8.24;83.65
69543;SHT31;56762;49.494;11.768;2023-04-25T05:12:33;8.23;83.11
69543;SHT31;56762;49.494;11.768;2023-04-25T05:15:03;8.21;82.85
69543;SHT31;56762;49.494;11.768;2023-04-25T05:17:30;8.25;83.26
69543;SHT31;56762;49.494;11.768;2023-04-25T05:19:59;8.28;82.90
69543;SHT31;56762;49.494;11.768;2023-04-25T05:22:27;8.31;83.36
69543;SHT31;56762;49.494;11.768;2023-04-25T05:24:56;8.31;82.86
69543;SHT31;56762;49.494;11.768;2023-04-25T05:27:24;8.30;82.13
69543;SHT31;56762;49.494;11.768;2023-04-25T05:29:51;8.31;82.49
69543;SHT31;56762;49.494;11.768;2023-04-25T05:32:19;8.27;82.38
69543;SHT31;56762;49.494;11.768;2023-04-25T05:34:47;8.27;81.86
69543;SHT31;56762;49.494;11.768;2023-04-25T05:37:16;8.28;82.02
69543;SHT31;56762;49.494;11.768;2023-04-25T05:39:43;8.34;81.34
69543;SHT31;56762;49.494;11.768;2023-04-25T05:42:12;8.35;80.67
69543;SHT31;56762;49.494;11.768;2023-04-25T05:44:40;8.35;81.37
69543;SHT31;56762;49.494;11.768;2023-04-25T05:47:08;8.34;81.53
69543;SHT31;56762;49.494;11.768;2023-04-25T05:49:36;8.33;81.30
69543;SHT31;56762;49.494;11.768;2023-04-25T05:52:04;8.28;81.92
69543;SHT31;56762;49.494;11.768;2023-04-25T05:54:32;8.31;82.49
69543;SHT31;56762;49.494;11.768;2023-04-25T05:56:59;8.34;82.69
69543;SHT31;56762;49.494;11.768;2023-04-25T05:59:30;8.38;81.71
69543;SHT31;56762;49.494;11.768;2023-04-25T06:01:57;8.48;81.88
69543;SHT31;56762;49.494;11.768;2023-04-25T06:04:29;8.69;81.92
69543;SHT31;56762;49.494;11.768;2023-04-25T06:06:58;8.93;81.20
69543;SHT31;56762;49.494;11.768;2023-04-25T06:09:25;9.00;80.91
69543;SHT31;56762;49.494;11.768;2023-04-25T06:11:53;9.02;80.14
69543;SHT31;56762;49.494;11.768;2023-04-25T06:14:21;9.03;80.30
69543;SHT31;56762;49.494;11.768;2023-04-25T06:16:51;9.00;80.30
69543;SHT31;56762;49.494;11.768;2023-04-25T06:19:19;8.97;79.78
69543;SHT31;56762;49.494;11.768;2023-04-25T06:21:47;8.93;79.62
69543;SHT31;56762;49.494;11.768;2023-04-25T06:24:15;8.90;79.69
69543;SHT31;56762;49.494;11.768;2023-04-25T06:26:43;8.87;79.69
69543;SHT31;56762;49.494;11.768;2023-04-25T06:29:11;8.83;79.65
69543;SHT31;56762;49.494;11.768;2023-04-25T06:31:39;8.82;79.75
69543;SHT31;56762;49.494;11.768;2023-04-25T06:34:09;8.76;80.01
69543;SHT31;56762;49.494;11.768;2023-04-25T06:36:37;8.78;80.06
69543;SHT31;56762;49.494;11.768;2023-04-25T06:39:05;8.71;80.23
69543;SHT31;56762;49.494;11.768;2023-04-25T06:41:32;8.76;79.88
69543;SHT31;56762;49.494;11.768;2023-04-25T06:44:00;8.69;80.31
69543;SHT31;56762;49.494;11.768;2023-04-25T06:46:28;8.65;79.82
69543;SHT31;56762;49.494;11.768;2023-04-25T06:48:56;8.56;79.78
69543;SHT31;56762;49.494;11.768;2023-04-25T06:51:25;8.54;80.20
69543;SHT31;56762;49.494;11.768;2023-04-25T06:53:55;8.47;80.97
69543;SHT31;56762;49.494;11.768;2023-04-25T06:56:23;8.44;81.42
69543;SHT31;56762;49.494;11.768;2023-04-25T06:58:51;8.44;81.95
69543;SHT31;56762;49.494;11.768;2023-04-25T07:01:18;8.47;82.28
69543;SHT31;56762;49.494;11.768;2023-04-25T07:03:46;8.51;82.62
69543;SHT31;56762;49.494;11.768;2023-04-25T07:06:14;8.52;82.12
69543;SHT31;56762;49.494;11.768;2023-04-25T07:08:44;8.55;81.94
69543;SHT31;56762;49.494;11.768;2023-04-25T07:11:11;8.62;82.04
69543;SHT31;56762;49.494;11.768;2023-04-25T07:13:39;8.65;81.94
69543;SHT31;56762;49.494;11.768;2023-04-25T07:16:07;8.71;82.80
69543;SHT31;56762;49.494;11.768;2023-04-25T07:18:35;8.66;80.75
69543;SHT31;56762;49.494;11.768;2023-04-25T07:21:03;8.61;80.79
69543;SHT31;56762;49.494;11.768;2023-04-25T07:23:31;8.72;81.43
69543;SHT31;56762;49.494;11.768;2023-04-25T07:26:00;8.82;80.88
69543;SHT31;56762;49.494;11.768;2023-04-25T07:28:28;8.78;79.79
69543;SHT31;56762;49.494;11.768;2023-04-25T07:30:56;8.76;80.07
69543;SHT31;56762;49.494;11.768;2023-04-25T07:33:24;8.75;80.08
69543;SHT31;56762;49.494;11.768;2023-04-25T07:35:53;8.62;79.65
69543;SHT31;56762;49.494;11.768;2023-04-25T07:38:21;8.59;80.44
69543;SHT31;56762;49.494;11.768;2023-04-25T07:40:49;8.58;80.92
69543;SHT31;56762;49.494;11.768;2023-04-25T07:43:18;8.51;81.85
69543;SHT31;56762;49.494;11.768;2023-04-25T07:45:46;8.31;80.98
69543;SHT31;56762;49.494;11.768;2023-04-25T07:48:16;8.21;81.58
69543;SHT31;56762;49.494;11.768;2023-04-25T07:50:45;8.20;82.16
69543;SHT31;56762;49.494;11.768;2023-04-25T07:53:12;8.17;83.08
69543;SHT31;56762;49.494;11.768;2023-04-25T07:55:40;8.11;82.31
69543;SHT31;56762;49.494;11.768;2023-04-25T07:58:10;8.11;82.73
69543;SHT31;56762;49.494;11.768;2023-04-25T08:00:39;8.20;82.96
69543;SHT31;56762;49.494;11.768;2023-04-25T08:03:09;8.23;81.73
69543;SHT31;56762;49.494;11.768;2023-04-25T08:05:37;8.30;82.52
69543;SHT31;56762;49.494;11.768;2023-04-25T08:08:05;8.35;82.53
69543;SHT31;56762;49.494;11.768;2023-04-25T08:10:34;8.40;81.62
69543;SHT31;56762;49.494;11.768;2023-04-25T08:13:01;8.37;79.67
69543;SHT31;56762;49.494;11.768;2023-04-25T08:15:29;8.37;80.82
69543;SHT31;56762;49.494;11.768;2023-04-25T08:17:58;8.35;79.34
69543;SHT31;56762;49.494;11.768;2023-04-25T08:20:26;8.33;78.46
69543;SHT31;56762;49.494;11.768;2023-04-25T08:22:53;8.25;79.16
69543;SHT31;56762;49.494;11.768;2023-04-25T08:25:21;8.21;79.83
69543;SHT31;56762;49.494;11.768;2023-04-25T08:27:49;8.23;80.81
69543;SHT31;56762;49.494;11.768;2023-04-25T08:30:17;8.35;82.16
69543;SHT31;56762;49.494;11.768;2023-04-25T08:32:45;8.47;81.15
69543;SHT31;56762;49.494;11.768;2023-04-25T08:35:14;8.51;79.27
69543;SHT31;56762;49.494;11.768;2023-04-25T08:37:43;8.48;78.79
69543;SHT31;56762;49.494;11.768;2023-04-25T08:40:14;8.54;79.58
69543;SHT31;56762;49.494;11.768;2023-04-25T08:42:42;8.45;79.07
69543;SHT31;56762;49.494;11.768;2023-04-25T08:45:10;8.41;80.50
69543;SHT31;56762;49.494;11.768;2023-04-25T08:47:44;8.40;81.01
69543;SHT31;56762;49.494;11.768;2023-04-25T08:50:16;8.33;80.05
69543;SHT31;56762;49.494;11.768;2023-04-25T08:52:46;8.28;79.47
69543;SHT31;56762;49.494;11.768;2023-04-25T08:55:15;8.20;81.59
69543;SHT31;56762;49.494;11.768;2023-04-25T08:57:43;8.16;82.11
69543;SHT31;56762;49.494;11.768;2023-04-25T09:00:12;8.16;82.17
69543;SHT31;56762;49.494;11.768;2023-04-25T09:02:42;8.18;81.69
69543;SHT31;56762;49.494;11.768;2023-04-25T09:05:12;8.21;81.50
69543;SHT31;56762;49.494;11.768;2023-04-25T09:07:41;8.17;81.60
69543;SHT31;56762;49.494;11.768;2023-04-25T09:10:09;8.20;80.71
69543;SHT31;56762;49.494;11.768;2023-04-25T09:12:37;8.28;82.61
69543;SHT31;56762;49.494;11.768;2023-04-25T09:15:07;8.37;82.15
69543;SHT31;56762;49.494;11.768;2023-04-25T09:17:35;8.49;81.39
69543;SHT31;56762;49.494;11.768;2023-04-25T09:20:08;8.68;81.44
69543;SHT31;56762;49.494;11.768;2023-04-25T09:22:37;8.87;81.36
69543;SHT31;56762;49.494;11.768;2023-04-25T09:25:10;9.13;81.20
69543;SHT31;56762;49.494;11.768;2023-04-25T09:27:49;9.40;79.61
69543;SHT31;56762;49.494;11.768;2023-04-25T09:30:18;9.62;79.52
69543;SHT31;56762;49.494;11.768;2023-04-25T09:32:46;9.81;78.75
69543;SHT31;56762;49.494;11.768;2023-04-25T09:35:24;9.91;78.40
69543;SHT31;56762;49.494;11.768;2023-04-25T09:37:53;10.03;79.25
69543;SHT31;56762;49.494;11.768;2023-04-25T09:40:22;10.10;76.82
69543;SHT31;56762;49.494;11.768;2023-04-25T09:42:50;10.23;77.39
69543;SHT31;56762;49.494;11.768;2023-04-25T09:45:18;10.40;78.01
69543;SHT31;56762;49.494;11.768;2023-04-25T09:47:46;10.56;77.41
69543;SHT31;56762;49.494;11.768;2023-04-25T09:50:14;10.73;78.05
69543;SHT31;56762;49.494;11.768;2023-04-25T09:52:43;10.77;74.40
69543;SHT31;56762;49.494;11.768;2023-04-25T09:55:11;10.81;75.81
69543;SHT31;56762;49.494;11.768;2023-04-25T09:57:40;10.76;75.58
69543;SHT31;56762;49.494;11.768;2023-04-25T10:00:09;10.83;76.02
69543;SHT31;56762;49.494;11.768;2023-04-25T10:02:42;10.97;75.15
69543;SHT31;56762;49.494;11.768;2023-04-25T10:05:10;10.98;74.01
69543;SHT31;56762;49.494;11.768;2023-04-25T10:07:38;10.96;73.33
69543;SHT31;56762;49.494;11.768;2023-04-25T10:10:08;10.87;73.43
69543;SHT31;56762;49.494;11.768;2023-04-25T10:12:41;10.78;73.57
69543;SHT31;56762;49.494;11.768;2023-04-25T10:15:11;10.74;74.32
69543;SHT31;56762;49.494;11.768;2023-04-25T10:17:39;10.67;73.40
69543;SHT31;56762;49.494;11.768;2023-04-25T10:20:08;10.68;72.71
69543;SHT31;56762;49.494;11.768;2023-04-25T10:22:39;10.64;71.90
69543;SHT31;56762;49.494;11.768;2023-04-25T10:25:09;10.64;73.11
69543;SHT31;56762;49.494;11.768;2023-04-25T10:27:38;10.78;73.70
69543;SHT31;56762;49.494;11.768;2023-04-25T10:30:09;10.90;73.33
69543;SHT31;56762;49.494;11.768;2023-04-25T10:32:39;11.01;69.97
69543;SHT31;56762;49.494;11.768;2023-04-25T10:35:12;11.24;69.40
69543;SHT31;56762;49.494;11.768;2023-04-25T10:38:03;11.46;68.47
69543;SHT31;56762;49.494;11.768;2023-04-25T10:40:32;11.63;66.49
69543;SHT31;56762;49.494;11.768;2023-04-25T10:43:35;11.63;65.28
69543;SHT31;56762;49.494;11.768;2023-04-25T10:46:13;11.39;63.10
69543;SHT31;56762;49.494;11.768;2023-04-25T10:48:46;11.14;64.91
69543;SHT31;56762;49.494;11.768;2023-04-25T10:51:20;11.06;65.87
69543;SHT31;56762;49.494;11.768;2023-04-25T10:53:57;11.00;65.94
69543;SHT31;56762;49.494;11.768;2023-04-25T10:56:26;11.01;66.23
69543;SHT31;56762;49.494;11.768;2023-04-25T10:59:04;10.85;66.35
69543;SHT31;56762;49.494;11.768;2023-04-25T11:01:38;10.78;66.15
69543;SHT31;56762;49.494;11.768;2023-04-25T11:04:19;10.55;68.53
69543;SHT31;56762;49.494;11.768;2023-04-25T11:06:58;10.57;67.67
69543;SHT31;56762;49.494;11.768;2023-04-25T11:09:33;10.57;69.33
69543;SHT31;56762;49.494;11.768;2023-04-25T11:12:01;10.60;69.74
69543;SHT31;56762;49.494;11.768;2023-04-25T11:14:29;10.67;71.08
69543;SHT31;56762;49.494;11.768;2023-04-25T11:16:58;10.73;71.26
69543;SHT31;56762;49.494;11.768;2023-04-25T11:19:28;10.70;68.78
69543;SHT31;56762;49.494;11.768;2023-04-25T11:21:57;10.63;69.29
69543;SHT31;56762;49.494;11.768;2023-04-25T11:24:27;10.49;69.31
69543;SHT31;56762;49.494;11.768;2023-04-25T11:26:54;10.43;68.94
69543;SHT31;56762;49.494;11.768;2023-04-25T11:29:23;10.37;69.49
69543;SHT31;56762;49.494;11.768;2023-04-25T11:31:50;10.53;70.62
69543;SHT31;56762;49.494;11.768;2023-04-25T11:34:19;10.73;70.29
69543;SHT31;56762;49.494;11.768;2023-04-25T11:36:49;10.97;68.69
69543;SHT31;56762;49.494;11.768;2023-04-25T11:39:18;11.01;66.22
69543;SHT31;56762;49.494;11.768;2023-04-25T11:41:47;10.98;66.31
69543;SHT31;56762;49.494;11.768;2023-04-25T11:44:15;10.96;66.39
69543;SHT31;56762;49.494;11.768;2023-04-25T11:46:43;11.01;66.10
69543;SHT31;56762;49.494;11.768;2023-04-25T11:49:11;10.93;64.49
69543;SHT31;56762;49.494;11.768;2023-04-25T11:51:41;10.91;64.56
69543;SHT31;56762;49.494;11.768;2023-04-25T11:54:10;10.85;63.71
69543;SHT31;56762;49.494;11.768;2023-04-25T11:56:40;10.90;64.92
69543;SHT31;56762;49.494;11.768;2023-04-25T11:59:08;11.06;64.31
69543;SHT31;56762;49.494;11.768;2023-04-25T12:01:39;11.12;64.68
69543;SHT31;56762;49.494;11.768;2023-04-25T12:04:11;11.14;65.51
69543;SHT31;56762;49.494;11.768;2023-04-25T12:06:42;11.19;64.10
69543;SHT31;56762;49.494;11.768;2023-04-25T12:09:11;11.18;63.69
69543;SHT31;56762;49.494;11.768;2023-04-25T12:11:43;11.15;64.56
69543;SHT31;56762;49.494;11.768;2023-04-25T12:14:20;11.17;63.68
69543;SHT31;56762;49.494;11.768;2023-04-25T12:16:50;11.10;61.16
69543;SHT31;56762;49.494;11.768;2023-04-25T12:19:20;11.14;60.87
69543;SHT31;56762;49.494;11.768;2023-04-25T12:21:49;11.29;60.76
69543;SHT31;56762;49.494;11.768;2023-04-25T12:24:22;11.35;60.55
69543;SHT31;56762;49.494;11.768;2023-04-25T12:26:53;11.42;59.93
69543;SHT31;56762;49.494;11.768;2023-04-25T12:29:22;11.39;59.65
69543;SHT31;56762;49.494;11.768;2023-04-25T12:31:55;11.22;59.01
69543;SHT31;56762;49.494;11.768;2023-04-25T12:34:24;11.07;60.89
69543;SHT31;56762;49.494;11.768;2023-04-25T12:36:54;10.94;59.82
69543;SHT31;56762;49.494;11.768;2023-04-25T12:39:24;10.76;60.24
69543;SHT31;56762;49.494;11.768;2023-04-25T12:41:53;10.61;61.29
69543;SHT31;56762;49.494;11.768;2023-04-25T12:44:21;10.47;62.74
69543;SHT31;56762;49.494;11.768;2023-04-25T12:46:49;10.49;61.46
69543;SHT31;56762;49.494;11.768;2023-04-25T12:49:18;10.52;62.39
69543;SHT31;56762;49.494;11.768;2023-04-25T12:51:46;10.60;62.13
69543;SHT31;56762;49.494;11.768;2023-04-25T12:54:15;10.73;60.50
69543;SHT31;56762;49.494;11.768;2023-04-25T12:56:44;10.93;61.35
69543;SHT31;56762;49.494;11.768;2023-04-25T12:59:12;11.10;59.78
69543;SHT31;56762;49.494;11.768;2023-04-25T13:01:40;11.32;60.14
69543;SHT31;56762;49.494;11.768;2023-04-25T13:04:11;11.51;58.43
69543;SHT31;56762;49.494;11.768;2023-04-25T13:06:39;11.42;54.41
69543;SHT31;56762;49.494;11.768;2023-04-25T13:09:07;11.28;53.82
69543;SHT31;56762;49.494;11.768;2023-04-25T13:11:36;11.32;53.34
69543;SHT31;56762;49.494;11.768;2023-04-25T13:14:04;11.32;53.14
69543;SHT31;56762;49.494;11.768;2023-04-25T13:16:33;11.42;53.53
69543;SHT31;56762;49.494;11.768;2023-04-25T13:19:01;11.31;53.61
69543;SHT31;56762;49.494;11.768;2023-04-25T13:21:30;11.35;53.96
69543;SHT31;56762;49.494;11.768;2023-04-25T13:23:59;11.42;54.64
69543;SHT31;56762;49.494;11.768;2023-04-25T13:26:26;11.24;53.87
69543;SHT31;56762;49.494;11.768;2023-04-25T13:28:55;11.19;54.91
69543;SHT31;56762;49.494;11.768;2023-04-25T13:31:23;11.27;54.23
69543;SHT31;56762;49.494;11.768;2023-04-25T13:33:51;11.36;55.07
69543;SHT31;56762;49.494;11.768;2023-04-25T13:36:20;11.45;54.88
69543;SHT31;56762;49.494;11.768;2023-04-25T13:38:48;11.61;54.32
69543;SHT31;56762;49.494;11.768;2023-04-25T13:41:16;11.72;53.90
69543;SHT31;56762;49.494;11.768;2023-04-25T13:43:45;11.76;51.88
69543;SHT31;56762;49.494;11.768;2023-04-25T13:46:17;11.83;53.69
69543;SHT31;56762;49.494;11.768;2023-04-25T13:48:47;11.96;54.09
69543;SHT31;56762;49.494;11.768;2023-04-25T13:51:21;12.07;53.62
69543;SHT31;56762;49.494;11.768;2023-04-25T13:53:48;12.00;52.14
69543;SHT31;56762;49.494;11.768;2023-04-25T13:56:16;11.96;52.81
69543;SHT31;56762;49.494;11.768;2023-04-25T13:58:46;11.76;52.74
69543;SHT31;56762;49.494;11.768;2023-04-25T14:01:14;11.61;52.14
69543;SHT31;56762;49.494;11.768;2023-04-25T14:03:43;11.40;53.03
69543;SHT31;56762;49.494;11.768;2023-04-25T14:06:12;11.28;54.16
69543;SHT31;56762;49.494;11.768;2023-04-25T14:08:40;11.27;54.58
69543;SHT31;56762;49.494;11.768;2023-04-25T14:11:07;11.27;53.53
69543;SHT31;56762;49.494;11.768;2023-04-25T14:13:36;11.28;55.70
69543;SHT31;56762;49.494;11.768;2023-04-25T14:16:04;11.34;56.55
69543;SHT31;56762;49.494;11.768;2023-04-25T14:18:32;11.39;54.50
69543;SHT31;56762;49.494;11.768;2023-04-25T14:21:01;11.42;55.71
69543;SHT31;56762;49.494;11.768;2023-04-25T14:23:29;11.55;54.44
69543;SHT31;56762;49.494;11.768;2023-04-25T14:25:56;11.48;54.14
69543;SHT31;56762;49.494;11.768;2023-04-25T14:28:24;11.52;55.95
69543;SHT31;56762;49.494;11.768;2023-04-25T14:30:52;11.56;55.13
69543;SHT31;56762;49.494;11.768;2023-04-25T14:33:20;11.51;55.03
69543;SHT31;56762;49.494;11.768;2023-04-25T14:35:48;11.32;53.86
69543;SHT31;56762;49.494;11.768;2023-04-25T14:38:17;11.36;54.32
69543;SHT31;56762;49.494;11.768;2023-04-25T14:40:49;11.28;52.69
69543;SHT31;56762;49.494;11.768;2023-04-25T14:43:17;11.03;52.80
69543;SHT31;56762;49.494;11.768;2023-04-25T14:45:45;11.06;53.70
69543;SHT31;56762;49.494;11.768;2023-04-25T14:48:12;11.08;54.84
69543;SHT31;56762;49.494;11.768;2023-04-25T14:50:41;11.07;54.30
69543;SHT31;56762;49.494;11.768;2023-04-25T14:53:09;10.85;54.59
69543;SHT31;56762;49.494;11.768;2023-04-25T14:55:40;10.81;54.76
69543;SHT31;56762;49.494;11.768;2023-04-25T14:58:08;10.77;54.60
69543;SHT31;56762;49.494;11.768;2023-04-25T15:00:39;10.67;55.98
69543;SHT31;56762;49.494;11.768;2023-04-25T15:03:07;10.47;55.37
69543;SHT31;56762;49.494;11.768;2023-04-25T15:05:36;10.42;55.90
69543;SHT31;56762;49.494;11.768;2023-04-25T15:08:04;10.43;55.76
69543;SHT31;56762;49.494;11.768;2023-04-25T15:10:32;10.45;56.72
69543;SHT31;56762;49.494;11.768;2023-04-25T15:13:01;10.52;56.87
69543;SHT31;56762;49.494;11.768;2023-04-25T15:15:29;10.47;57.65
69543;SHT31;56762;49.494;11.768;2023-04-25T15:17:56;10.45;57.62
69543;SHT31;56762;49.494;11.768;2023-04-25T15:20:26;10.37;58.65
69543;SHT31;56762;49.494;11.768;2023-04-25T15:22:54;10.28;59.81
69543;SHT31;56762;49.494;11.768;2023-04-25T15:25:22;10.19;59.92
69543;SHT31;56762;49.494;11.768;2023-04-25T15:27:49;10.16;60.85
69543;SHT31;56762;49.494;11.768;2023-04-25T15:30:19;10.15;60.09
69543;SHT31;56762;49.494;11.768;2023-04-25T15:32:48;10.18;60.02
69543;SHT31;56762;49.494;11.768;2023-04-25T15:35:15;10.12;59.89